sensor_id;sensor_type;location;lat;lon;timestamp;temperature;humidity
40085;DHT22;25786;51.504;7.344;2023-04-03T00:00:44;2.40;83.00
40085;DHT22;25786;51.504;7.344;2023-04-03T00:03:09;2.20;83.30
40085;DHT22;25786;51.504;7.344;2023-04-03T00:05:35;2.20;83.50
40085;DHT22;25786;51.504;7.344;2023-04-03T00:08:00;2.20;83.30
40085;DHT22;25786;51.504;7.344;2023-04-03T00:10:27;2.10;83.30
40085;DHT22;25786;51.504;7.344;2023-04-03T00:12:53;2.10;83.60
40085;DHT22;25786;51.504;7.344;2023-04-03T00:15:18;2.10;83.50
40085;DHT22;25786;51.504;7.344;2023-04-03T00:17:44;2.10;83.70
40085;DHT22;25786;51.504;7.344;2023-04-03T00:20:09;2.10;83.70
40085;DHT22;25786;51.504;7.344;2023-04-03T00:22:35;2.00;83.80
40085;DHT22;25786;51.504;7.344;2023-04-03T00:25:00;2.00;83.60
40085;DHT22;25786;51.504;7.344;2023-04-03T00:27:26;2.00;83.80
40085;DHT22;25786;51.504;7.344;2023-04-03T00:29:51;2.00;83.80
40085;DHT22;25786;51.504;7.344;2023-04-03T00:32:17;2.00;84.00
40085;DHT22;25786;51.504;7.344;2023-04-03T00:34:42;2.00;84.00
40085;DHT22;25786;51.504;7.344;2023-04-03T00:37:08;2.10;84.20
40085;DHT22;25786;51.504;7.344;2023-04-03T00:39:33;2.30;84.30
40085;DHT22;25786;51.504;7.344;2023-04-03T00:41:58;2.50;84.10
40085;DHT22;25786;51.504;7.344;2023-04-03T00:46:59;2.70;83.10
40085;DHT22;25786;51.504;7.344;2023-04-03T00:49:24;2.70;82.90
40085;DHT22;25786;51.504;7.344;2023-04-03T00:51:50;2.80;82.20
40085;DHT22;25786;51.504;7.344;2023-04-03T00:54:16;2.80;82.60
40085;DHT22;25786;51.504;7.344;2023-04-03T00:56:41;2.90;82.10
40085;DHT22;25786;51.504;7.344;2023-04-03T00:59:10;2.80;81.90
40085;DHT22;25786;51.504;7.344;2023-04-03T01:01:36;2.80;81.60
40085;DHT22;25786;51.504;7.344;2023-04-03T01:04:02;2.90;81.90
40085;DHT22;25786;51.504;7.344;2023-04-03T01:06:29;2.80;81.70
40085;DHT22;25786;51.504;7.344;2023-04-03T01:08:57;2.70;81.70
40085;DHT22;25786;51.504;7.344;2023-04-03T01:11:23;2.70;82.30
40085;DHT22;25786;51.504;7.344;2023-04-03T01:13:48;2.60;82.00
40085;DHT22;25786;51.504;7.344;2023-04-03T01:16:14;2.50;81.80
40085;DHT22;25786;51.504;7.344;2023-04-03T01:18:40;2.50;82.60
40085;DHT22;25786;51.504;7.344;2023-04-03T01:21:26;2.60;82.80
40085;DHT22;25786;51.504;7.344;2023-04-03T01:24:00;2.60;82.30
40085;DHT22;25786;51.504;7.344;2023-04-03T01:26:27;2.60;81.90
40085;DHT22;25786;51.504;7.344;2023-04-03T01:28:54;2.60;82.00
40085;DHT22;25786;51.504;7.344;2023-04-03T01:31:22;2.50;82.10
40085;DHT22;25786;51.504;7.344;2023-04-03T01:33:49;2.60;82.20
40085;DHT22;25786;51.504;7.344;2023-04-03T01:36:17;2.50;82.50
40085;DHT22;25786;51.504;7.344;2023-04-03T01:38:43;2.50;82.60
40085;DHT22;25786;51.504;7.344;2023-04-03T01:41:08;2.60;82.40
40085;DHT22;25786;51.504;7.344;2023-04-03T01:43:34;2.60;82.30
40085;DHT22;25786;51.504;7.344;2023-04-03T01:45:59;2.50;82.20
40085;DHT22;25786;51.504;7.344;2023-04-03T01:48:25;2.50;82.10
40085;DHT22;25786;51.504;7.344;2023-04-03T01:50:50;2.60;82.00
40085;DHT22;25786;51.504;7.344;2023-04-03T01:53:16;2.50;82.10
40085;DHT22;25786;51.504;7.344;2023-04-03T01:55:41;2.50;82.10
40085;DHT22;25786;51.504;7.344;2023-04-03T01:58:06;2.50;82.10
40085;DHT22;25786;51.504;7.344;2023-04-03T02:00:32;2.50;81.90
40085;DHT22;25786;51.504;7.344;2023-04-03T02:02:57;2.40;82.20
40085;DHT22;25786;51.504;7.344;2023-04-03T02:05:23;2.60;81.30
40085;DHT22;25786;51.504;7.344;2023-04-03T02:07:48;2.50;81.40
40085;DHT22;25786;51.504;7.344;2023-04-03T02:10:14;2.50;81.40
40085;DHT22;25786;51.504;7.344;2023-04-03T02:12:40;2.50;81.50
40085;DHT22;25786;51.504;7.344;2023-04-03T02:15:06;2.50;80.80
40085;DHT22;25786;51.504;7.344;2023-04-03T02:17:31;2.40;81.00
40085;DHT22;25786;51.504;7.344;2023-04-03T02:19:57;2.50;81.20
40085;DHT22;25786;51.504;7.344;2023-04-03T02:22:22;2.40;81.40
40085;DHT22;25786;51.504;7.344;2023-04-03T02:24:48;2.40;81.60
40085;DHT22;25786;51.504;7.344;2023-04-03T02:27:14;2.40;81.60
40085;DHT22;25786;51.504;7.344;2023-04-03T02:29:39;2.50;81.10
40085;DHT22;25786;51.504;7.344;2023-04-03T02:32:05;2.50;79.60
40085;DHT22;25786;51.504;7.344;2023-04-03T02:34:31;2.70;79.20
40085;DHT22;25786;51.504;7.344;2023-04-03T02:36:56;2.60;79.40
40085;DHT22;25786;51.504;7.344;2023-04-03T02:39:22;2.60;79.20
40085;DHT22;25786;51.504;7.344;2023-04-03T02:41:47;2.50;79.40
40085;DHT22;25786;51.504;7.344;2023-04-03T02:44:12;2.50;79.10
40085;DHT22;25786;51.504;7.344;2023-04-03T02:46:38;2.50;79.20
40085;DHT22;25786;51.504;7.344;2023-04-03T02:49:04;2.50;79.20
40085;DHT22;25786;51.504;7.344;2023-04-03T02:51:29;2.40;79.50
40085;DHT22;25786;51.504;7.344;2023-04-03T02:53:55;2.40;80.10
40085;DHT22;25786;51.504;7.344;2023-04-03T02:56:20;2.30;80.30
40085;DHT22;25786;51.504;7.344;2023-04-03T02:58:47;2.20;80.60
40085;DHT22;25786;51.504;7.344;2023-04-03T03:01:13;2.20;80.60
40085;DHT22;25786;51.504;7.344;2023-04-03T03:03:39;2.10;80.50
40085;DHT22;25786;51.504;7.344;2023-04-03T03:06:05;2.10;80.70
40085;DHT22;25786;51.504;7.344;2023-04-03T03:08:31;1.90;80.90
40085;DHT22;25786;51.504;7.344;2023-04-03T03:10:56;1.90;80.90
40085;DHT22;25786;51.504;7.344;2023-04-03T03:13:22;1.80;80.90
40085;DHT22;25786;51.504;7.344;2023-04-03T03:15:48;1.80;80.20
40085;DHT22;25786;51.504;7.344;2023-04-03T03:18:13;1.80;80.20
40085;DHT22;25786;51.504;7.344;2023-04-03T03:20:38;1.80;80.40
40085;DHT22;25786;51.504;7.344;2023-04-03T03:23:04;1.70;80.60
40085;DHT22;25786;51.504;7.344;2023-04-03T03:25:29;1.90;80.20
40085;DHT22;25786;51.504;7.344;2023-04-03T03:27:55;1.90;79.90
40085;DHT22;25786;51.504;7.344;2023-04-03T03:30:20;1.80;79.80
40085;DHT22;25786;51.504;7.344;2023-04-03T03:32:46;1.80;80.40
40085;DHT22;25786;51.504;7.344;2023-04-03T03:35:12;1.80;80.10
40085;DHT22;25786;51.504;7.344;2023-04-03T03:37:37;1.70;79.90
40085;DHT22;25786;51.504;7.344;2023-04-03T03:40:03;1.60;80.20
40085;DHT22;25786;51.504;7.344;2023-04-03T03:42:28;1.60;80.10
40085;DHT22;25786;51.504;7.344;2023-04-03T03:44:54;1.60;80.30
40085;DHT22;25786;51.504;7.344;2023-04-03T03:47:19;1.70;80.20
40085;DHT22;25786;51.504;7.344;2023-04-03T03:49:45;1.70;80.10
40085;DHT22;25786;51.504;7.344;2023-04-03T03:52:11;1.70;80.30
40085;DHT22;25786;51.504;7.344;2023-04-03T03:54:36;1.60;80.10
40085;DHT22;25786;51.504;7.344;2023-04-03T03:57:02;1.70;80.30
40085;DHT22;25786;51.504;7.344;2023-04-03T03:59:28;1.60;80.40
40085;DHT22;25786;51.504;7.344;2023-04-03T04:01:53;1.60;80.20
40085;DHT22;25786;51.504;7.344;2023-04-03T04:04:20;1.60;80.00
40085;DHT22;25786;51.504;7.344;2023-04-03T04:06:45;1.50;80.10
40085;DHT22;25786;51.504;7.344;2023-04-03T04:09:11;1.40;80.20
40085;DHT22;25786;51.504;7.344;2023-04-03T04:11:36;1.40;80.50
40085;DHT22;25786;51.504;7.344;2023-04-03T04:14:02;1.50;80.80
40085;DHT22;25786;51.504;7.344;2023-04-03T04:16:27;1.40;80.50
40085;DHT22;25786;51.504;7.344;2023-04-03T04:18:53;1.40;80.60
40085;DHT22;25786;51.504;7.344;2023-04-03T04:21:18;1.40;80.90
40085;DHT22;25786;51.504;7.344;2023-04-03T04:23:44;1.50;81.30
40085;DHT22;25786;51.504;7.344;2023-04-03T04:26:10;1.50;80.80
40085;DHT22;25786;51.504;7.344;2023-04-03T04:28:35;1.40;80.90
40085;DHT22;25786;51.504;7.344;2023-04-03T04:31:01;1.60;80.70
40085;DHT22;25786;51.504;7.344;2023-04-03T04:33:26;1.50;80.60
40085;DHT22;25786;51.504;7.344;2023-04-03T04:35:51;1.60;80.60
40085;DHT22;25786;51.504;7.344;2023-04-03T04:38:17;1.50;80.20
40085;DHT22;25786;51.504;7.344;2023-04-03T04:40:42;1.40;80.30
40085;DHT22;25786;51.504;7.344;2023-04-03T04:43:08;1.30;80.50
40085;DHT22;25786;51.504;7.344;2023-04-03T04:45:33;1.30;81.20
40085;DHT22;25786;51.504;7.344;2023-04-03T04:47:59;1.30;80.80
40085;DHT22;25786;51.504;7.344;2023-04-03T04:50:25;1.30;80.80
40085;DHT22;25786;51.504;7.344;2023-04-03T04:52:50;1.30;80.40
40085;DHT22;25786;51.504;7.344;2023-04-03T04:55:16;1.30;81.00
40085;DHT22;25786;51.504;7.344;2023-04-03T04:57:41;1.30;80.50
40085;DHT22;25786;51.504;7.344;2023-04-03T05:00:07;1.20;80.80
40085;DHT22;25786;51.504;7.344;2023-04-03T05:02:33;1.20;81.30
40085;DHT22;25786;51.504;7.344;2023-04-03T05:04:58;1.10;81.00
40085;DHT22;25786;51.504;7.344;2023-04-03T05:07:24;1.10;81.00
40085;DHT22;25786;51.504;7.344;2023-04-03T05:09:50;1.10;81.50
40085;DHT22;25786;51.504;7.344;2023-04-03T05:12:15;1.10;81.30
40085;DHT22;25786;51.504;7.344;2023-04-03T05:14:41;1.10;81.50
40085;DHT22;25786;51.504;7.344;2023-04-03T05:17:06;1.10;81.20
40085;DHT22;25786;51.504;7.344;2023-04-03T05:19:32;1.20;82.00
40085;DHT22;25786;51.504;7.344;2023-04-03T05:21:57;1.40;81.50
40085;DHT22;25786;51.504;7.344;2023-04-03T05:24:23;1.50;81.10
40085;DHT22;25786;51.504;7.344;2023-04-03T05:26:48;1.50;81.10
40085;DHT22;25786;51.504;7.344;2023-04-03T05:29:14;1.70;80.10
40085;DHT22;25786;51.504;7.344;2023-04-03T05:31:39;1.60;80.50
40085;DHT22;25786;51.504;7.344;2023-04-03T05:34:05;1.60;80.50
40085;DHT22;25786;51.504;7.344;2023-04-03T05:36:31;1.60;80.40
40085;DHT22;25786;51.504;7.344;2023-04-03T05:38:56;1.50;80.30
40085;DHT22;25786;51.504;7.344;2023-04-03T05:41:22;1.40;80.30
40085;DHT22;25786;51.504;7.344;2023-04-03T05:43:47;1.40;80.50
40085;DHT22;25786;51.504;7.344;2023-04-03T05:46:14;1.50;81.00
40085;DHT22;25786;51.504;7.344;2023-04-03T05:48:39;1.60;80.90
40085;DHT22;25786;51.504;7.344;2023-04-03T05:51:06;1.60;80.30
40085;DHT22;25786;51.504;7.344;2023-04-03T05:53:33;1.60;79.80
40085;DHT22;25786;51.504;7.344;2023-04-03T05:56:00;1.70;79.80
40085;DHT22;25786;51.504;7.344;2023-04-03T05:58:26;1.80;79.30
40085;DHT22;25786;51.504;7.344;2023-04-03T06:00:51;1.60;80.10
40085;DHT22;25786;51.504;7.344;2023-04-03T06:03:17;1.70;80.30
40085;DHT22;25786;51.504;7.344;2023-04-03T06:05:42;1.70;80.40
40085;DHT22;25786;51.504;7.344;2023-04-03T06:08:08;1.70;80.10
40085;DHT22;25786;51.504;7.344;2023-04-03T06:10:34;1.90;79.50
40085;DHT22;25786;51.504;7.344;2023-04-03T06:13:00;1.80;79.30
40085;DHT22;25786;51.504;7.344;2023-04-03T06:15:26;1.70;79.80
40085;DHT22;25786;51.504;7.344;2023-04-03T06:17:51;1.60;80.00
40085;DHT22;25786;51.504;7.344;2023-04-03T06:20:17;1.50;80.40
40085;DHT22;25786;51.504;7.344;2023-04-03T06:22:42;1.60;80.10
40085;DHT22;25786;51.504;7.344;2023-04-03T06:25:08;1.50;80.10
40085;DHT22;25786;51.504;7.344;2023-04-03T06:27:34;1.60;79.20
40085;DHT22;25786;51.504;7.344;2023-04-03T06:30:00;1.60;79.70
40085;DHT22;25786;51.504;7.344;2023-04-03T06:32:25;1.50;80.00
40085;DHT22;25786;51.504;7.344;2023-04-03T06:34:51;1.50;80.40
40085;DHT22;25786;51.504;7.344;2023-04-03T06:37:19;1.60;80.00
40085;DHT22;25786;51.504;7.344;2023-04-03T06:39:45;1.70;79.70
40085;DHT22;25786;51.504;7.344;2023-04-03T06:42:11;1.60;79.10
40085;DHT22;25786;51.504;7.344;2023-04-03T06:44:36;1.60;79.80
40085;DHT22;25786;51.504;7.344;2023-04-03T06:47:02;1.70;79.40
40085;DHT22;25786;51.504;7.344;2023-04-03T06:49:28;1.60;78.90
40085;DHT22;25786;51.504;7.344;2023-04-03T06:51:54;1.80;78.30
40085;DHT22;25786;51.504;7.344;2023-04-03T06:54:19;1.80;78.70
40085;DHT22;25786;51.504;7.344;2023-04-03T06:56:45;1.90;79.20
40085;DHT22;25786;51.504;7.344;2023-04-03T06:59:11;1.90;77.90
40085;DHT22;25786;51.504;7.344;2023-04-03T07:01:38;1.80;77.80
40085;DHT22;25786;51.504;7.344;2023-04-03T07:04:03;1.90;78.00
40085;DHT22;25786;51.504;7.344;2023-04-03T07:06:29;1.90;77.30
40085;DHT22;25786;51.504;7.344;2023-04-03T07:08:56;1.80;77.10
40085;DHT22;25786;51.504;7.344;2023-04-03T07:11:25;1.90;77.50
40085;DHT22;25786;51.504;7.344;2023-04-03T07:13:53;1.90;77.60
40085;DHT22;25786;51.504;7.344;2023-04-03T07:16:20;2.00;78.60
40085;DHT22;25786;51.504;7.344;2023-04-03T07:18:47;2.10;78.20
40085;DHT22;25786;51.504;7.344;2023-04-03T07:21:13;2.10;77.70
40085;DHT22;25786;51.504;7.344;2023-04-03T07:23:39;2.10;76.90
40085;DHT22;25786;51.504;7.344;2023-04-03T07:26:06;2.10;76.80
40085;DHT22;25786;51.504;7.344;2023-04-03T07:28:33;2.20;78.20
40085;DHT22;25786;51.504;7.344;2023-04-03T07:31:05;2.30;77.40
40085;DHT22;25786;51.504;7.344;2023-04-03T07:33:33;2.30;76.70
40085;DHT22;25786;51.504;7.344;2023-04-03T07:36:00;2.30;76.70
40085;DHT22;25786;51.504;7.344;2023-04-03T07:38:28;2.40;77.40
40085;DHT22;25786;51.504;7.344;2023-04-03T07:40:56;2.40;76.10
40085;DHT22;25786;51.504;7.344;2023-04-03T07:43:25;2.50;77.20
40085;DHT22;25786;51.504;7.344;2023-04-03T07:45:54;2.60;76.90
40085;DHT22;25786;51.504;7.344;2023-04-03T07:48:25;2.80;76.40
40085;DHT22;25786;51.504;7.344;2023-04-03T07:50:51;2.70;74.20
40085;DHT22;25786;51.504;7.344;2023-04-03T07:53:18;2.60;74.20
40085;DHT22;25786;51.504;7.344;2023-04-03T07:55:48;2.80;75.90
40085;DHT22;25786;51.504;7.344;2023-04-03T07:58:26;2.70;74.00
40085;DHT22;25786;51.504;7.344;2023-04-03T08:00:55;2.90;74.80
40085;DHT22;25786;51.504;7.344;2023-04-03T08:03:22;3.00;75.20
40085;DHT22;25786;51.504;7.344;2023-04-03T08:06:22;2.90;74.80
40085;DHT22;25786;51.504;7.344;2023-04-03T08:11:34;3.00;73.60
40085;DHT22;25786;51.504;7.344;2023-04-03T08:14:07;3.10;74.40
40085;DHT22;25786;51.504;7.344;2023-04-03T08:19:43;3.30;73.40
40085;DHT22;25786;51.504;7.344;2023-04-03T08:22:09;3.30;72.70
40085;DHT22;25786;51.504;7.344;2023-04-03T08:24:44;3.50;72.50
40085;DHT22;25786;51.504;7.344;2023-04-03T08:27:19;3.30;71.80
40085;DHT22;25786;51.504;7.344;2023-04-03T08:29:45;3.30;71.50
40085;DHT22;25786;51.504;7.344;2023-04-03T08:32:13;3.40;72.60
40085;DHT22;25786;51.504;7.344;2023-04-03T08:37:34;3.50;70.70
40085;DHT22;25786;51.504;7.344;2023-04-03T08:40:03;3.60;70.00
40085;DHT22;25786;51.504;7.344;2023-04-03T08:48:11;4.00;68.20
40085;DHT22;25786;51.504;7.344;2023-04-03T08:50:43;4.00;68.50
40085;DHT22;25786;51.504;7.344;2023-04-03T08:53:15;3.80;68.40
40085;DHT22;25786;51.504;7.344;2023-04-03T08:55:48;3.80;66.60
40085;DHT22;25786;51.504;7.344;2023-04-03T09:01:58;3.90;66.10
40085;DHT22;25786;51.504;7.344;2023-04-03T09:03:59;4.00;69.40
40085;DHT22;25786;51.504;7.344;2023-04-03T09:06:26;4.20;68.20
40085;DHT22;25786;51.504;7.344;2023-04-03T09:14:54;4.50;65.10
40085;DHT22;25786;51.504;7.344;2023-04-03T09:19:52;4.60;62.80
40085;DHT22;25786;51.504;7.344;2023-04-03T09:24:45;4.50;61.50
40085;DHT22;25786;51.504;7.344;2023-04-03T09:27:12;4.70;61.20
40085;DHT22;25786;51.504;7.344;2023-04-03T09:29:42;4.70;64.00
40085;DHT22;25786;51.504;7.344;2023-04-03T09:32:18;4.70;61.40
40085;DHT22;25786;51.504;7.344;2023-04-03T09:34:43;4.70;59.70
40085;DHT22;25786;51.504;7.344;2023-04-03T09:37:09;4.70;61.10
40085;DHT22;25786;51.504;7.344;2023-04-03T09:39:51;4.90;63.40
40085;DHT22;25786;51.504;7.344;2023-04-03T09:42:18;5.00;58.60
40085;DHT22;25786;51.504;7.344;2023-04-03T09:44:48;5.20;62.30
40085;DHT22;25786;51.504;7.344;2023-04-03T09:52:44;5.30;57.60
40085;DHT22;25786;51.504;7.344;2023-04-03T09:55:22;5.20;60.20
40085;DHT22;25786;51.504;7.344;2023-04-03T09:57:59;5.20;59.10
40085;DHT22;25786;51.504;7.344;2023-04-03T10:00:30;5.30;60.60
40085;DHT22;25786;51.504;7.344;2023-04-03T10:02:57;5.30;61.00
40085;DHT22;25786;51.504;7.344;2023-04-03T10:08:15;5.50;59.30
40085;DHT22;25786;51.504;7.344;2023-04-03T10:10:46;5.30;58.70
40085;DHT22;25786;51.504;7.344;2023-04-03T10:13:13;5.50;57.50
40085;DHT22;25786;51.504;7.344;2023-04-03T10:15:41;5.50;59.80
40085;DHT22;25786;51.504;7.344;2023-04-03T10:18:26;5.60;57.30
40085;DHT22;25786;51.504;7.344;2023-04-03T10:20:53;5.70;59.80
40085;DHT22;25786;51.504;7.344;2023-04-03T10:29:01;5.70;54.90
40085;DHT22;25786;51.504;7.344;2023-04-03T10:33:44;5.80;59.10
40085;DHT22;25786;51.504;7.344;2023-04-03T10:41:34;5.90;52.70
40085;DHT22;25786;51.504;7.344;2023-04-03T10:44:08;6.00;56.30
40085;DHT22;25786;51.504;7.344;2023-04-03T10:46:38;6.10;53.80
40085;DHT22;25786;51.504;7.344;2023-04-03T10:49:21;6.00;56.50
40085;DHT22;25786;51.504;7.344;2023-04-03T10:51:53;6.20;53.50
40085;DHT22;25786;51.504;7.344;2023-04-03T10:54:25;6.10;53.10
40085;DHT22;25786;51.504;7.344;2023-04-03T10:56:52;6.20;53.20
40085;DHT22;25786;51.504;7.344;2023-04-03T10:59:25;6.20;51.50
40085;DHT22;25786;51.504;7.344;2023-04-03T11:01:53;6.20;51.50
40085;DHT22;25786;51.504;7.344;2023-04-03T11:04:20;6.10;51.90
40085;DHT22;25786;51.504;7.344;2023-04-03T11:06:51;6.10;54.10
40085;DHT22;25786;51.504;7.344;2023-04-03T11:09:24;6.30;55.80
40085;DHT22;25786;51.504;7.344;2023-04-03T11:11:52;6.60;54.80
40085;DHT22;25786;51.504;7.344;2023-04-03T11:16:46;6.50;53.50
40085;DHT22;25786;51.504;7.344;2023-04-03T11:19:15;6.60;52.30
40085;DHT22;25786;51.504;7.344;2023-04-03T11:24:28;6.80;53.10
40085;DHT22;25786;51.504;7.344;2023-04-03T11:26:55;6.90;53.00
40085;DHT22;25786;51.504;7.344;2023-04-03T11:29:29;6.90;51.70
40085;DHT22;25786;51.504;7.344;2023-04-03T11:32:01;6.70;52.30
40085;DHT22;25786;51.504;7.344;2023-04-03T11:34:40;6.70;51.40
40085;DHT22;25786;51.504;7.344;2023-04-03T11:37:13;6.90;53.20
40085;DHT22;25786;51.504;7.344;2023-04-03T11:39:41;6.90;52.00
40085;DHT22;25786;51.504;7.344;2023-04-03T11:42:14;7.00;51.40
40085;DHT22;25786;51.504;7.344;2023-04-03T11:44:40;7.00;50.10
40085;DHT22;25786;51.504;7.344;2023-04-03T11:47:07;7.00;50.80
40085;DHT22;25786;51.504;7.344;2023-04-03T11:55:35;6.90;50.00
40085;DHT22;25786;51.504;7.344;2023-04-03T12:03:01;7.30;49.30
40085;DHT22;25786;51.504;7.344;2023-04-03T12:05:28;7.10;49.70
40085;DHT22;25786;51.504;7.344;2023-04-03T12:10:38;7.10;47.90
40085;DHT22;25786;51.504;7.344;2023-04-03T12:13:12;7.20;51.50
40085;DHT22;25786;51.504;7.344;2023-04-03T12:18:53;7.40;50.90
40085;DHT22;25786;51.504;7.344;2023-04-03T12:20:54;7.20;47.90
40085;DHT22;25786;51.504;7.344;2023-04-03T12:23:24;7.00;47.10
40085;DHT22;25786;51.504;7.344;2023-04-03T12:25:51;7.00;47.30
40085;DHT22;25786;51.504;7.344;2023-04-03T12:28:17;7.20;48.30
40085;DHT22;25786;51.504;7.344;2023-04-03T12:30:43;7.30;48.20
40085;DHT22;25786;51.504;7.344;2023-04-03T12:33:29;7.30;47.90
40085;DHT22;25786;51.504;7.344;2023-04-03T12:38:56;7.20;47.50
40085;DHT22;25786;51.504;7.344;2023-04-03T12:44:04;7.30;49.40
40085;DHT22;25786;51.504;7.344;2023-04-03T12:46:42;7.30;46.80
40085;DHT22;25786;51.504;7.344;2023-04-03T12:49:20;7.30;50.20
40085;DHT22;25786;51.504;7.344;2023-04-03T12:51:47;7.20;48.50
40085;DHT22;25786;51.504;7.344;2023-04-03T12:56:39;7.40;48.70
40085;DHT22;25786;51.504;7.344;2023-04-03T13:01:39;7.30;46.40
40085;DHT22;25786;51.504;7.344;2023-04-03T13:04:10;7.50;49.10
40085;DHT22;25786;51.504;7.344;2023-04-03T13:06:43;7.70;49.20
40085;DHT22;25786;51.504;7.344;2023-04-03T13:09:27;7.60;47.00
40085;DHT22;25786;51.504;7.344;2023-04-03T13:11:56;7.60;47.30
40085;DHT22;25786;51.504;7.344;2023-04-03T13:14:26;7.40;48.10
40085;DHT22;25786;51.504;7.344;2023-04-03T13:16:57;7.30;47.40
40085;DHT22;25786;51.504;7.344;2023-04-03T13:22:28;7.40;46.70
40085;DHT22;25786;51.504;7.344;2023-04-03T13:24:56;7.30;47.40
40085;DHT22;25786;51.504;7.344;2023-04-03T13:27:23;7.40;49.00
40085;DHT22;25786;51.504;7.344;2023-04-03T13:29:52;7.40;48.90
40085;DHT22;25786;51.504;7.344;2023-04-03T13:32:22;7.50;47.30
40085;DHT22;25786;51.504;7.344;2023-04-03T13:34:57;7.50;48.10
40085;DHT22;25786;51.504;7.344;2023-04-03T13:37:31;7.50;47.70
40085;DHT22;25786;51.504;7.344;2023-04-03T13:39:59;7.50;48.90
40085;DHT22;25786;51.504;7.344;2023-04-03T13:42:28;7.40;47.90
40085;DHT22;25786;51.504;7.344;2023-04-03T13:47:40;7.60;50.10
40085;DHT22;25786;51.504;7.344;2023-04-03T13:52:41;7.50;48.40
40085;DHT22;25786;51.504;7.344;2023-04-03T13:57:52;7.60;49.60
40085;DHT22;25786;51.504;7.344;2023-04-03T14:00:29;7.60;48.40
40085;DHT22;25786;51.504;7.344;2023-04-03T14:02:55;7.60;48.90
40085;DHT22;25786;51.504;7.344;2023-04-03T14:05:21;7.50;49.50
40085;DHT22;25786;51.504;7.344;2023-04-03T14:07:48;7.60;51.70
40085;DHT22;25786;51.504;7.344;2023-04-03T14:10:14;7.70;50.00
40085;DHT22;25786;51.504;7.344;2023-04-03T14:12:39;7.60;50.10
40085;DHT22;25786;51.504;7.344;2023-04-03T14:15:16;7.80;49.90
40085;DHT22;25786;51.504;7.344;2023-04-03T14:17:43;7.80;46.50
40085;DHT22;25786;51.504;7.344;2023-04-03T14:20:19;7.70;47.10
40085;DHT22;25786;51.504;7.344;2023-04-03T14:22:45;7.60;47.40
40085;DHT22;25786;51.504;7.344;2023-04-03T14:25:11;7.50;46.90
40085;DHT22;25786;51.504;7.344;2023-04-03T14:27:41;7.50;49.60
40085;DHT22;25786;51.504;7.344;2023-04-03T14:30:08;7.70;50.00
40085;DHT22;25786;51.504;7.344;2023-04-03T14:32:34;7.60;47.60
40085;DHT22;25786;51.504;7.344;2023-04-03T14:35:00;7.60;49.70
40085;DHT22;25786;51.504;7.344;2023-04-03T14:37:27;7.80;49.20
40085;DHT22;25786;51.504;7.344;2023-04-03T14:39:53;7.60;48.70
40085;DHT22;25786;51.504;7.344;2023-04-03T14:42:20;7.60;49.70
40085;DHT22;25786;51.504;7.344;2023-04-03T14:44:46;7.70;49.80
40085;DHT22;25786;51.504;7.344;2023-04-03T14:47:12;7.80;51.00
40085;DHT22;25786;51.504;7.344;2023-04-03T14:49:38;7.60;47.20
40085;DHT22;25786;51.504;7.344;2023-04-03T14:52:24;7.50;47.70
40085;DHT22;25786;51.504;7.344;2023-04-03T14:54:51;7.50;47.10
40085;DHT22;25786;51.504;7.344;2023-04-03T14:57:17;7.60;49.10
40085;DHT22;25786;51.504;7.344;2023-04-03T14:59:44;7.60;48.80
40085;DHT22;25786;51.504;7.344;2023-04-03T15:04:47;7.60;47.90
40085;DHT22;25786;51.504;7.344;2023-04-03T15:07:12;7.50;47.60
40085;DHT22;25786;51.504;7.344;2023-04-03T15:09:38;7.50;47.70
40085;DHT22;25786;51.504;7.344;2023-04-03T15:12:03;7.50;48.30
40085;DHT22;25786;51.504;7.344;2023-04-03T15:14:29;7.40;48.00
40085;DHT22;25786;51.504;7.344;2023-04-03T15:16:54;7.40;49.60
40085;DHT22;25786;51.504;7.344;2023-04-03T15:19:20;7.50;49.40
40085;DHT22;25786;51.504;7.344;2023-04-03T15:21:45;7.50;47.90
40085;DHT22;25786;51.504;7.344;2023-04-03T15:24:10;7.50;49.60
40085;DHT22;25786;51.504;7.344;2023-04-03T15:26:36;7.60;50.20
40085;DHT22;25786;51.504;7.344;2023-04-03T15:29:03;7.50;49.60
40085;DHT22;25786;51.504;7.344;2023-04-03T15:31:28;7.60;49.90
40085;DHT22;25786;51.504;7.344;2023-04-03T15:33:54;7.60;47.50
40085;DHT22;25786;51.504;7.344;2023-04-03T15:36:19;7.60;48.70
40085;DHT22;25786;51.504;7.344;2023-04-03T15:38:45;7.50;48.10
40085;DHT22;25786;51.504;7.344;2023-04-03T15:41:10;7.40;49.20
40085;DHT22;25786;51.504;7.344;2023-04-03T15:43:36;7.30;48.30
40085;DHT22;25786;51.504;7.344;2023-04-03T15:46:01;7.30;50.00
40085;DHT22;25786;51.504;7.344;2023-04-03T15:48:27;7.30;48.40
40085;DHT22;25786;51.504;7.344;2023-04-03T15:50:53;7.30;47.70
40085;DHT22;25786;51.504;7.344;2023-04-03T15:53:18;7.40;48.00
40085;DHT22;25786;51.504;7.344;2023-04-03T15:55:44;7.30;48.00
40085;DHT22;25786;51.504;7.344;2023-04-03T15:58:09;7.20;48.70
40085;DHT22;25786;51.504;7.344;2023-04-03T16:00:36;7.20;49.90
40085;DHT22;25786;51.504;7.344;2023-04-03T16:03:04;7.30;49.40
40085;DHT22;25786;51.504;7.344;2023-04-03T16:05:33;7.30;49.80
40085;DHT22;25786;51.504;7.344;2023-04-03T16:08:00;7.30;48.60
40085;DHT22;25786;51.504;7.344;2023-04-03T16:10:26;7.20;48.10
40085;DHT22;25786;51.504;7.344;2023-04-03T16:12:52;7.20;48.30
40085;DHT22;25786;51.504;7.344;2023-04-03T16:15:17;7.20;48.30
40085;DHT22;25786;51.504;7.344;2023-04-03T16:17:43;7.20;48.90
40085;DHT22;25786;51.504;7.344;2023-04-03T16:20:09;7.20;49.10
40085;DHT22;25786;51.504;7.344;2023-04-03T16:22:35;7.10;50.20
40085;DHT22;25786;51.504;7.344;2023-04-03T16:25:01;7.10;48.80
40085;DHT22;25786;51.504;7.344;2023-04-03T16:27:26;7.00;48.90
40085;DHT22;25786;51.504;7.344;2023-04-03T16:29:55;7.00;47.80
40085;DHT22;25786;51.504;7.344;2023-04-03T16:32:21;7.00;48.50
40085;DHT22;25786;51.504;7.344;2023-04-03T16:34:47;7.00;48.30
40085;DHT22;25786;51.504;7.344;2023-04-03T16:37:13;6.90;48.00
40085;DHT22;25786;51.504;7.344;2023-04-03T16:39:41;6.90;48.50
40085;DHT22;25786;51.504;7.344;2023-04-03T16:42:06;6.80;49.30
40085;DHT22;25786;51.504;7.344;2023-04-03T16:44:52;6.80;49.20
40085;DHT22;25786;51.504;7.344;2023-04-03T16:49:58;6.80;47.90
40085;DHT22;25786;51.504;7.344;2023-04-03T16:52:24;6.60;49.50
40085;DHT22;25786;51.504;7.344;2023-04-03T16:54:49;6.70;49.10
40085;DHT22;25786;51.504;7.344;2023-04-03T16:57:20;6.60;49.10
40085;DHT22;25786;51.504;7.344;2023-04-03T16:59:54;6.60;48.70
40085;DHT22;25786;51.504;7.344;2023-04-03T17:02:20;6.50;49.30
40085;DHT22;25786;51.504;7.344;2023-04-03T17:04:46;6.50;49.80
40085;DHT22;25786;51.504;7.344;2023-04-03T17:07:11;6.60;49.50
40085;DHT22;25786;51.504;7.344;2023-04-03T17:09:37;6.60;49.10
40085;DHT22;25786;51.504;7.344;2023-04-03T17:12:05;6.80;48.40
40085;DHT22;25786;51.504;7.344;2023-04-03T17:14:30;6.60;48.50
40085;DHT22;25786;51.504;7.344;2023-04-03T17:16:55;6.80;47.30
40085;DHT22;25786;51.504;7.344;2023-04-03T17:19:21;6.70;48.20
40085;DHT22;25786;51.504;7.344;2023-04-03T17:21:48;6.60;49.10
40085;DHT22;25786;51.504;7.344;2023-04-03T17:24:15;6.50;50.00
40085;DHT22;25786;51.504;7.344;2023-04-03T17:26:40;6.40;50.60